sensor_id;sensor_type;location;lat;lon;timestamp;P1;durP1;ratioP1;P2;durP2;ratioP2
17604;SDS011;8921;50.964;6.800;2023-10-31T00:02:20;5.40;;;3.60;;
17604;SDS011;8921;50.964;6.800;2023-10-31T00:04:48;6.00;;;3.60;;
17604;SDS011;8921;50.964;6.800;2023-10-31T00:07:17;7.33;;;4.00;;
17604;SDS011;8921;50.964;6.800;2023-10-31T00:09:45;6.60;;;4.63;;
17604;SDS011;8921;50.964;6.800;2023-10-31T00:12:13;6.53;;;4.57;;
17604;SDS011;8921;50.964;6.800;2023-10-31T00:14:41;6.80;;;4.90;;
17604;SDS011;8921;50.964;6.800;2023-10-31T00:17:10;7.57;;;5.90;;
17604;SDS011;8921;50.964;6.800;2023-10-31T00:19:38;6.80;;;5.40;;
17604;SDS011;8921;50.964;6.800;2023-10-31T00:22:06;7.13;;;5.30;;
17604;SDS011;8921;50.964;6.800;2023-10-31T00:24:35;7.50;;;5.80;;
17604;SDS011;8921;50.964;6.800;2023-10-31T00:27:03;6.90;;;5.13;;
17604;SDS011;8921;50.964;6.800;2023-10-31T00:29:31;6.90;;;5.10;;
17604;SDS011;8921;50.964;6.800;2023-10-31T00:31:59;6.40;;;4.50;;
17604;SDS011;8921;50.964;6.800;2023-10-31T00:34:28;6.07;;;3.90;;
17604;SDS011;8921;50.964;6.800;2023-10-31T00:36:56;6.43;;;3.33;;
17604;SDS011;8921;50.964;6.800;2023-10-31T00:39:24;6.30;;;3.07;;
17604;SDS011;8921;50.964;6.800;2023-10-31T00:41:53;5.40;;;3.30;;
17604;SDS011;8921;50.964;6.800;2023-10-31T00:44:21;6.37;;;3.83;;
17604;SDS011;8921;50.964;6.800;2023-10-31T00:46:49;5.83;;;3.67;;
17604;SDS011;8921;50.964;6.800;2023-10-31T00:49:17;5.60;;;3.40;;
17604;SDS011;8921;50.964;6.800;2023-10-31T00:51:46;5.90;;;3.40;;
17604;SDS011;8921;50.964;6.800;2023-10-31T00:54:14;7.37;;;3.70;;
17604;SDS011;8921;50.964;6.800;2023-10-31T00:56:42;5.70;;;3.77;;
17604;SDS011;8921;50.964;6.800;2023-10-31T00:59:10;6.40;;;3.03;;
17604;SDS011;8921;50.964;6.800;2023-10-31T01:01:39;11.03;;;3.80;;
17604;SDS011;8921;50.964;6.800;2023-10-31T01:04:07;5.27;;;3.30;;
17604;SDS011;8921;50.964;6.800;2023-10-31T01:06:41;6.50;;;3.37;;
17604;SDS011;8921;50.964;6.800;2023-10-31T01:09:09;6.23;;;3.43;;
17604;SDS011;8921;50.964;6.800;2023-10-31T01:11:37;7.60;;;3.57;;
17604;SDS011;8921;50.964;6.800;2023-10-31T01:14:06;8.83;;;3.60;;
17604;SDS011;8921;50.964;6.800;2023-10-31T01:16:34;6.10;;;3.03;;
17604;SDS011;8921;50.964;6.800;2023-10-31T01:19:02;7.10;;;3.10;;
17604;SDS011;8921;50.964;6.800;2023-10-31T01:21:31;6.90;;;2.90;;
17604;SDS011;8921;50.964;6.800;2023-10-31T01:23:59;5.70;;;2.40;;
17604;SDS011;8921;50.964;6.800;2023-10-31T01:26:27;10.87;;;2.77;;
17604;SDS011;8921;50.964;6.800;2023-10-31T01:28:55;6.90;;;2.70;;
17604;SDS011;8921;50.964;6.800;2023-10-31T01:31:24;7.03;;;3.23;;
17604;SDS011;8921;50.964;6.800;2023-10-31T01:33:52;6.97;;;2.77;;
17604;SDS011;8921;50.964;6.800;2023-10-31T01:36:23;8.10;;;3.90;;
17604;SDS011;8921;50.964;6.800;2023-10-31T01:38:48;7.07;;;3.30;;
17604;SDS011;8921;50.964;6.800;2023-10-31T01:41:17;6.30;;;2.77;;
17604;SDS011;8921;50.964;6.800;2023-10-31T01:43:45;6.60;;;2.57;;
17604;SDS011;8921;50.964;6.800;2023-10-31T01:46:13;4.40;;;2.30;;
17604;SDS011;8921;50.964;6.800;2023-10-31T01:48:42;4.90;;;2.33;;
17604;SDS011;8921;50.964;6.800;2023-10-31T01:51:10;6.70;;;2.83;;
17604;SDS011;8921;50.964;6.800;2023-10-31T01:53:38;4.90;;;2.30;;
17604;SDS011;8921;50.964;6.800;2023-10-31T01:56:06;7.37;;;2.03;;
17604;SDS011;8921;50.964;6.800;2023-10-31T01:58:35;4.93;;;2.10;;
17604;SDS011;8921;50.964;6.800;2023-10-31T02:01:04;5.40;;;2.10;;
17604;SDS011;8921;50.964;6.800;2023-10-31T02:03:31;4.63;;;1.83;;
17604;SDS011;8921;50.964;6.800;2023-10-31T02:05:59;4.40;;;2.00;;
17604;SDS011;8921;50.964;6.800;2023-10-31T02:08:28;5.97;;;2.23;;
17604;SDS011;8921;50.964;6.800;2023-10-31T02:10:56;6.97;;;1.93;;
17604;SDS011;8921;50.964;6.800;2023-10-31T02:13:24;6.30;;;2.20;;
17604;SDS011;8921;50.964;6.800;2023-10-31T02:15:53;8.10;;;2.70;;
17604;SDS011;8921;50.964;6.800;2023-10-31T02:18:21;4.00;;;1.90;;
17604;SDS011;8921;50.964;6.800;2023-10-31T02:20:49;8.53;;;2.90;;
17604;SDS011;8921;50.964;6.800;2023-10-31T02:25:45;5.27;;;2.33;;
17604;SDS011;8921;50.964;6.800;2023-10-31T02:28:14;5.27;;;2.50;;
17604;SDS011;8921;50.964;6.800;2023-10-31T02:30:43;6.17;;;2.23;;
17604;SDS011;8921;50.964;6.800;2023-10-31T02:33:11;6.07;;;2.47;;
17604;SDS011;8921;50.964;6.800;2023-10-31T02:35:39;7.93;;;2.70;;
17604;SDS011;8921;50.964;6.800;2023-10-31T02:38:07;4.80;;;2.50;;
17604;SDS011;8921;50.964;6.800;2023-10-31T02:40:36;4.80;;;2.30;;
17604;SDS011;8921;50.964;6.800;2023-10-31T02:43:04;5.63;;;2.17;;
17604;SDS011;8921;50.964;6.800;2023-10-31T02:45:32;4.67;;;2.37;;
17604;SDS011;8921;50.964;6.800;2023-10-31T02:48:00;6.13;;;2.87;;
17604;SDS011;8921;50.964;6.800;2023-10-31T02:50:29;7.30;;;2.90;;
17604;SDS011;8921;50.964;6.800;2023-10-31T02:52:57;5.13;;;2.57;;
17604;SDS011;8921;50.964;6.800;2023-10-31T02:55:25;6.37;;;2.80;;
17604;SDS011;8921;50.964;6.800;2023-10-31T02:57:53;6.87;;;2.77;;
17604;SDS011;8921;50.964;6.800;2023-10-31T03:00:22;8.13;;;2.73;;
17604;SDS011;8921;50.964;6.800;2023-10-31T03:02:50;5.40;;;2.47;;
17604;SDS011;8921;50.964;6.800;2023-10-31T03:05:18;5.93;;;2.17;;
17604;SDS011;8921;50.964;6.800;2023-10-31T03:07:47;6.00;;;2.77;;
17604;SDS011;8921;50.964;6.800;2023-10-31T03:10:15;5.63;;;2.50;;
17604;SDS011;8921;50.964;6.800;2023-10-31T03:12:43;7.00;;;2.37;;
17604;SDS011;8921;50.964;6.800;2023-10-31T03:15:11;8.87;;;2.33;;
17604;SDS011;8921;50.964;6.800;2023-10-31T03:17:40;10.50;;;2.70;;
17604;SDS011;8921;50.964;6.800;2023-10-31T03:20:08;4.33;;;2.00;;
17604;SDS011;8921;50.964;6.800;2023-10-31T03:22:37;5.47;;;2.10;;
17604;SDS011;8921;50.964;6.800;2023-10-31T03:25:05;5.57;;;2.10;;
17604;SDS011;8921;50.964;6.800;2023-10-31T03:27:34;5.77;;;2.70;;
17604;SDS011;8921;50.964;6.800;2023-10-31T03:30:02;4.03;;;2.10;;
17604;SDS011;8921;50.964;6.800;2023-10-31T03:32:30;6.07;;;2.00;;
17604;SDS011;8921;50.964;6.800;2023-10-31T03:34:59;7.33;;;2.40;;
17604;SDS011;8921;50.964;6.800;2023-10-31T03:37:27;6.13;;;2.20;;
17604;SDS011;8921;50.964;6.800;2023-10-31T03:42:17;6.17;;;2.10;;
17604;SDS011;8921;50.964;6.800;2023-10-31T03:44:46;3.97;;;1.60;;
17604;SDS011;8921;50.964;6.800;2023-10-31T03:47:14;6.03;;;2.13;;
17604;SDS011;8921;50.964;6.800;2023-10-31T03:49:42;6.10;;;1.93;;
17604;SDS011;8921;50.964;6.800;2023-10-31T03:52:10;7.23;;;2.17;;
17604;SDS011;8921;50.964;6.800;2023-10-31T03:54:39;5.50;;;2.20;;
17604;SDS011;8921;50.964;6.800;2023-10-31T03:57:07;5.20;;;1.70;;
17604;SDS011;8921;50.964;6.800;2023-10-31T03:59:36;4.97;;;1.87;;
17604;SDS011;8921;50.964;6.800;2023-10-31T04:02:04;4.90;;;1.70;;
17604;SDS011;8921;50.964;6.800;2023-10-31T04:04:32;6.17;;;1.60;;
17604;SDS011;8921;50.964;6.800;2023-10-31T04:07:00;3.90;;;1.57;;
17604;SDS011;8921;50.964;6.800;2023-10-31T04:09:29;5.50;;;1.73;;
17604;SDS011;8921;50.964;6.800;2023-10-31T04:11:57;4.47;;;1.63;;
17604;SDS011;8921;50.964;6.800;2023-10-31T04:14:25;4.53;;;1.63;;
17604;SDS011;8921;50.964;6.800;2023-10-31T04:16:53;4.60;;;1.53;;
17604;SDS011;8921;50.964;6.800;2023-10-31T04:19:22;5.10;;;1.97;;
17604;SDS011;8921;50.964;6.800;2023-10-31T04:21:51;5.60;;;1.80;;
17604;SDS011;8921;50.964;6.800;2023-10-31T04:24:18;6.20;;;1.90;;
17604;SDS011;8921;50.964;6.800;2023-10-31T04:26:47;5.70;;;2.17;;
17604;SDS011;8921;50.964;6.800;2023-10-31T04:29:15;8.30;;;1.73;;
17604;SDS011;8921;50.964;6.800;2023-10-31T04:31:43;8.00;;;2.23;;
17604;SDS011;8921;50.964;6.800;2023-10-31T04:34:12;5.43;;;2.87;;
17604;SDS011;8921;50.964;6.800;2023-10-31T04:36:40;3.83;;;1.50;;
17604;SDS011;8921;50.964;6.800;2023-10-31T04:39:08;4.87;;;2.00;;
17604;SDS011;8921;50.964;6.800;2023-10-31T04:41:36;4.67;;;1.90;;
17604;SDS011;8921;50.964;6.800;2023-10-31T04:44:05;4.93;;;2.30;;
17604;SDS011;8921;50.964;6.800;2023-10-31T04:46:33;4.00;;;1.50;;
17604;SDS011;8921;50.964;6.800;2023-10-31T04:49:02;8.73;;;3.43;;
17604;SDS011;8921;50.964;6.800;2023-10-31T04:51:35;4.70;;;2.03;;
17604;SDS011;8921;50.964;6.800;2023-10-31T04:54:01;4.03;;;1.87;;
17604;SDS011;8921;50.964;6.800;2023-10-31T04:56:29;4.87;;;2.20;;
17604;SDS011;8921;50.964;6.800;2023-10-31T04:58:57;5.17;;;2.50;;
17604;SDS011;8921;50.964;6.800;2023-10-31T05:01:26;5.10;;;2.33;;
17604;SDS011;8921;50.964;6.800;2023-10-31T05:03:54;6.23;;;1.93;;
17604;SDS011;8921;50.964;6.800;2023-10-31T05:06:22;5.20;;;2.17;;
17604;SDS011;8921;50.964;6.800;2023-10-31T05:08:51;4.43;;;2.10;;
17604;SDS011;8921;50.964;6.800;2023-10-31T05:11:19;3.97;;;1.67;;
17604;SDS011;8921;50.964;6.800;2023-10-31T05:13:47;3.87;;;2.00;;
17604;SDS011;8921;50.964;6.800;2023-10-31T05:16:15;5.80;;;2.10;;
17604;SDS011;8921;50.964;6.800;2023-10-31T05:18:44;4.50;;;2.37;;
17604;SDS011;8921;50.964;6.800;2023-10-31T05:21:12;8.43;;;2.90;;
17604;SDS011;8921;50.964;6.800;2023-10-31T05:23:40;4.80;;;2.63;;
17604;SDS011;8921;50.964;6.800;2023-10-31T05:26:09;5.17;;;2.60;;
17604;SDS011;8921;50.964;6.800;2023-10-31T05:28:37;4.60;;;2.30;;
17604;SDS011;8921;50.964;6.800;2023-10-31T05:31:05;4.77;;;2.60;;
17604;SDS011;8921;50.964;6.800;2023-10-31T05:33:34;6.40;;;2.20;;
17604;SDS011;8921;50.964;6.800;2023-10-31T05:36:02;5.40;;;3.03;;
17604;SDS011;8921;50.964;6.800;2023-10-31T05:38:30;5.30;;;2.53;;
17604;SDS011;8921;50.964;6.800;2023-10-31T05:40:59;7.50;;;2.30;;
17604;SDS011;8921;50.964;6.800;2023-10-31T05:43:27;4.80;;;2.30;;
17604;SDS011;8921;50.964;6.800;2023-10-31T05:45:55;6.93;;;2.40;;
17604;SDS011;8921;50.964;6.800;2023-10-31T05:48:24;4.43;;;2.03;;
17604;SDS011;8921;50.964;6.800;2023-10-31T05:50:52;9.53;;;4.07;;
17604;SDS011;8921;50.964;6.800;2023-10-31T05:53:20;4.50;;;1.93;;
17604;SDS011;8921;50.964;6.800;2023-10-31T05:55:48;4.67;;;2.20;;
17604;SDS011;8921;50.964;6.800;2023-10-31T05:58:17;7.60;;;3.10;;
17604;SDS011;8921;50.964;6.800;2023-10-31T06:00:45;5.00;;;2.57;;
17604;SDS011;8921;50.964;6.800;2023-10-31T06:03:13;6.20;;;3.13;;
17604;SDS011;8921;50.964;6.800;2023-10-31T06:05:42;6.03;;;2.83;;
17604;SDS011;8921;50.964;6.800;2023-10-31T06:08:10;6.03;;;2.80;;
17604;SDS011;8921;50.964;6.800;2023-10-31T06:10:38;9.97;;;3.00;;
17604;SDS011;8921;50.964;6.800;2023-10-31T06:13:07;5.33;;;3.23;;
17604;SDS011;8921;50.964;6.800;2023-10-31T06:15:35;7.87;;;3.23;;
17604;SDS011;8921;50.964;6.800;2023-10-31T06:18:03;6.37;;;3.40;;
17604;SDS011;8921;50.964;6.800;2023-10-31T06:20:31;5.20;;;3.57;;
17604;SDS011;8921;50.964;6.800;2023-10-31T06:23:00;6.33;;;3.80;;
17604;SDS011;8921;50.964;6.800;2023-10-31T06:25:28;6.17;;;3.43;;
17604;SDS011;8921;50.964;6.800;2023-10-31T06:27:56;11.10;;;3.63;;
17604;SDS011;8921;50.964;6.800;2023-10-31T06:30:25;7.10;;;3.57;;
17604;SDS011;8921;50.964;6.800;2023-10-31T06:32:53;5.70;;;3.63;;
17604;SDS011;8921;50.964;6.800;2023-10-31T06:35:22;7.20;;;3.23;;
17604;SDS011;8921;50.964;6.800;2023-10-31T06:37:54;6.90;;;3.70;;
17604;SDS011;8921;50.964;6.800;2023-10-31T06:40:21;8.00;;;3.60;;
17604;SDS011;8921;50.964;6.800;2023-10-31T06:42:49;5.37;;;3.30;;
17604;SDS011;8921;50.964;6.800;2023-10-31T06:45:18;6.23;;;3.53;;
17604;SDS011;8921;50.964;6.800;2023-10-31T06:47:46;7.83;;;3.67;;
17604;SDS011;8921;50.964;6.800;2023-10-31T06:50:14;6.80;;;3.80;;
17604;SDS011;8921;50.964;6.800;2023-10-31T06:52:42;5.67;;;3.27;;
17604;SDS011;8921;50.964;6.800;2023-10-31T06:55:11;9.53;;;3.83;;
17604;SDS011;8921;50.964;6.800;2023-10-31T06:57:39;8.90;;;3.40;;
17604;SDS011;8921;50.964;6.800;2023-10-31T07:00:07;6.07;;;3.40;;
17604;SDS011;8921;50.964;6.800;2023-10-31T07:02:36;6.97;;;3.63;;
17604;SDS011;8921;50.964;6.800;2023-10-31T07:05:04;6.17;;;3.60;;
17604;SDS011;8921;50.964;6.800;2023-10-31T07:07:33;7.43;;;3.90;;
17604;SDS011;8921;50.964;6.800;2023-10-31T07:10:01;10.23;;;4.33;;
17604;SDS011;8921;50.964;6.800;2023-10-31T07:12:29;10.10;;;4.90;;
17604;SDS011;8921;50.964;6.800;2023-10-31T07:14:58;9.13;;;5.07;;
17604;SDS011;8921;50.964;6.800;2023-10-31T07:17:26;9.27;;;4.33;;
17604;SDS011;8921;50.964;6.800;2023-10-31T07:19:54;7.20;;;5.10;;
17604;SDS011;8921;50.964;6.800;2023-10-31T07:22:23;6.53;;;4.53;;
17604;SDS011;8921;50.964;6.800;2023-10-31T07:24:51;8.47;;;5.23;;
17604;SDS011;8921;50.964;6.800;2023-10-31T07:27:19;9.47;;;5.90;;
17604;SDS011;8921;50.964;6.800;2023-10-31T07:29:47;7.17;;;4.27;;
17604;SDS011;8921;50.964;6.800;2023-10-31T07:32:16;8.93;;;4.50;;
17604;SDS011;8921;50.964;6.800;2023-10-31T07:34:44;8.53;;;4.40;;
17604;SDS011;8921;50.964;6.800;2023-10-31T07:37:12;7.20;;;4.70;;
17604;SDS011;8921;50.964;6.800;2023-10-31T07:39:41;9.40;;;4.80;;
17604;SDS011;8921;50.964;6.800;2023-10-31T07:42:09;7.40;;;4.63;;
17604;SDS011;8921;50.964;6.800;2023-10-31T07:44:37;8.23;;;4.07;;
17604;SDS011;8921;50.964;6.800;2023-10-31T07:47:06;7.03;;;4.30;;
17604;SDS011;8921;50.964;6.800;2023-10-31T07:49:34;5.90;;;3.97;;
17604;SDS011;8921;50.964;6.800;2023-10-31T07:52:02;7.17;;;3.97;;
17604;SDS011;8921;50.964;6.800;2023-10-31T07:54:31;5.63;;;3.47;;
17604;SDS011;8921;50.964;6.800;2023-10-31T07:56:59;6.47;;;3.70;;
17604;SDS011;8921;50.964;6.800;2023-10-31T07:59:27;9.97;;;4.90;;
17604;SDS011;8921;50.964;6.800;2023-10-31T08:01:56;9.30;;;4.67;;
17604;SDS011;8921;50.964;6.800;2023-10-31T08:04:24;7.00;;;3.50;;
17604;SDS011;8921;50.964;6.800;2023-10-31T08:06:52;8.17;;;3.90;;
17604;SDS011;8921;50.964;6.800;2023-10-31T08:09:21;7.30;;;3.80;;
17604;SDS011;8921;50.964;6.800;2023-10-31T08:11:49;8.53;;;5.57;;
17604;SDS011;8921;50.964;6.800;2023-10-31T08:14:17;6.30;;;4.00;;
17604;SDS011;8921;50.964;6.800;2023-10-31T08:16:46;6.47;;;3.23;;
17604;SDS011;8921;50.964;6.800;2023-10-31T08:19:14;9.00;;;3.60;;
17604;SDS011;8921;50.964;6.800;2023-10-31T08:21:43;7.33;;;3.40;;
17604;SDS011;8921;50.964;6.800;2023-10-31T08:24:11;7.93;;;3.17;;
17604;SDS011;8921;50.964;6.800;2023-10-31T08:26:39;7.70;;;3.70;;
17604;SDS011;8921;50.964;6.800;2023-10-31T08:29:08;5.80;;;3.20;;
17604;SDS011;8921;50.964;6.800;2023-10-31T08:31:36;6.80;;;3.20;;
17604;SDS011;8921;50.964;6.800;2023-10-31T08:34:04;6.57;;;3.23;;
17604;SDS011;8921;50.964;6.800;2023-10-31T08:36:33;9.97;;;5.73;;
17604;SDS011;8921;50.964;6.800;2023-10-31T08:39:01;5.23;;;2.80;;
17604;SDS011;8921;50.964;6.800;2023-10-31T08:41:29;7.27;;;3.60;;
17604;SDS011;8921;50.964;6.800;2023-10-31T08:43:57;7.47;;;4.33;;
17604;SDS011;8921;50.964;6.800;2023-10-31T08:46:26;5.70;;;3.20;;
17604;SDS011;8921;50.964;6.800;2023-10-31T08:48:54;7.83;;;4.27;;
17604;SDS011;8921;50.964;6.800;2023-10-31T08:51:22;9.80;;;6.03;;
17604;SDS011;8921;50.964;6.800;2023-10-31T08:53:51;7.40;;;3.33;;
17604;SDS011;8921;50.964;6.800;2023-10-31T08:56:19;6.47;;;3.70;;
17604;SDS011;8921;50.964;6.800;2023-10-31T08:58:47;6.23;;;3.53;;
17604;SDS011;8921;50.964;6.800;2023-10-31T09:01:15;6.90;;;4.50;;
17604;SDS011;8921;50.964;6.800;2023-10-31T09:03:44;8.80;;;2.80;;
17604;SDS011;8921;50.964;6.800;2023-10-31T09:06:12;7.10;;;3.40;;
17604;SDS011;8921;50.964;6.800;2023-10-31T09:08:40;4.97;;;2.90;;
17604;SDS011;8921;50.964;6.800;2023-10-31T09:11:09;6.00;;;3.10;;
17604;SDS011;8921;50.964;6.800;2023-10-31T09:13:37;7.60;;;3.20;;
17604;SDS011;8921;50.964;6.800;2023-10-31T09:16:05;6.00;;;3.17;;
17604;SDS011;8921;50.964;6.800;2023-10-31T09:18:34;5.30;;;2.53;;
17604;SDS011;8921;50.964;6.800;2023-10-31T09:21:02;6.60;;;2.20;;
17604;SDS011;8921;50.964;6.800;2023-10-31T09:23:30;8.23;;;3.20;;
17604;SDS011;8921;50.964;6.800;2023-10-31T09:25:59;7.17;;;3.10;;
17604;SDS011;8921;50.964;6.800;2023-10-31T09:28:27;7.20;;;3.20;;
17604;SDS011;8921;50.964;6.800;2023-10-31T09:30:55;6.60;;;2.70;;
17604;SDS011;8921;50.964;6.800;2023-10-31T09:33:24;6.03;;;2.90;;
17604;SDS011;8921;50.964;6.800;2023-10-31T09:35:52;5.27;;;2.80;;
17604;SDS011;8921;50.964;6.800;2023-10-31T09:38:20;5.50;;;2.70;;
17604;SDS011;8921;50.964;6.800;2023-10-31T09:40:48;6.07;;;2.87;;
17604;SDS011;8921;50.964;6.800;2023-10-31T09:43:17;9.63;;;3.20;;
17604;SDS011;8921;50.964;6.800;2023-10-31T09:45:45;5.50;;;2.50;;
17604;SDS011;8921;50.964;6.800;2023-10-31T09:48:13;4.67;;;2.57;;
17604;SDS011;8921;50.964;6.800;2023-10-31T09:50:42;5.03;;;2.00;;
17604;SDS011;8921;50.964;6.800;2023-10-31T09:53:10;4.67;;;1.80;;
17604;SDS011;8921;50.964;6.800;2023-10-31T09:55:38;10.13;;;2.90;;
17604;SDS011;8921;50.964;6.800;2023-10-31T09:58:06;5.90;;;2.23;;
17604;SDS011;8921;50.964;6.800;2023-10-31T10:00:35;4.33;;;1.90;;
17604;SDS011;8921;50.964;6.800;2023-10-31T10:03:03;4.87;;;2.50;;
17604;SDS011;8921;50.964;6.800;2023-10-31T10:05:31;6.10;;;2.10;;
17604;SDS011;8921;50.964;6.800;2023-10-31T10:08:00;5.70;;;2.00;;
17604;SDS011;8921;50.964;6.800;2023-10-31T10:10:28;5.83;;;1.87;;
17604;SDS011;8921;50.964;6.800;2023-10-31T10:12:56;5.70;;;2.03;;
17604;SDS011;8921;50.964;6.800;2023-10-31T10:15:25;5.27;;;2.30;;
17604;SDS011;8921;50.964;6.800;2023-10-31T10:17:53;6.50;;;2.60;;
17604;SDS011;8921;50.964;6.800;2023-10-31T10:20:21;5.77;;;2.10;;
17604;SDS011;8921;50.964;6.800;2023-10-31T10:22:49;4.80;;;1.60;;
17604;SDS011;8921;50.964;6.800;2023-10-31T10:25:18;4.70;;;2.10;;
17604;SDS011;8921;50.964;6.800;2023-10-31T10:27:46;4.87;;;1.50;;
17604;SDS011;8921;50.964;6.800;2023-10-31T10:30:14;4.73;;;2.10;;
17604;SDS011;8921;50.964;6.800;2023-10-31T10:32:43;5.80;;;2.10;;
17604;SDS011;8921;50.964;6.800;2023-10-31T10:35:11;4.37;;;1.60;;
17604;SDS011;8921;50.964;6.800;2023-10-31T10:37:40;6.53;;;2.20;;
17604;SDS011;8921;50.964;6.800;2023-10-31T10:40:08;5.20;;;1.57;;
17604;SDS011;8921;50.964;6.800;2023-10-31T10:42:44;6.20;;;1.70;;
17604;SDS011;8921;50.964;6.800;2023-10-31T10:45:14;4.20;;;1.47;;
17604;SDS011;8921;50.964;6.800;2023-10-31T10:47:48;8.80;;;1.70;;
17604;SDS011;8921;50.964;6.800;2023-10-31T10:50:19;5.27;;;1.93;;
17604;SDS011;8921;50.964;6.800;2023-10-31T10:53:40;4.33;;;1.40;;
17604;SDS011;8921;50.964;6.800;2023-10-31T10:55:30;6.73;;;1.60;;
17604;SDS011;8921;50.964;6.800;2023-10-31T10:58:05;4.30;;;1.60;;
17604;SDS011;8921;50.964;6.800;2023-10-31T11:00:33;4.03;;;1.40;;
17604;SDS011;8921;50.964;6.800;2023-10-31T11:03:01;4.80;;;1.40;;
17604;SDS011;8921;50.964;6.800;2023-10-31T11:05:29;4.37;;;1.60;;
17604;SDS011;8921;50.964;6.800;2023-10-31T11:07:57;3.87;;;1.10;;
17604;SDS011;8921;50.964;6.800;2023-10-31T11:10:26;6.20;;;1.30;;
17604;SDS011;8921;50.964;6.800;2023-10-31T11:12:54;6.63;;;1.50;;
17604;SDS011;8921;50.964;6.800;2023-10-31T11:15:22;4.07;;;1.20;;
17604;SDS011;8921;50.964;6.800;2023-10-31T11:17:51;7.03;;;1.40;;
17604;SDS011;8921;50.964;6.800;2023-10-31T11:20:19;4.30;;;1.30;;
17604;SDS011;8921;50.964;6.800;2023-10-31T11:22:47;3.70;;;1.23;;
17604;SDS011;8921;50.964;6.800;2023-10-31T11:25:18;4.30;;;1.17;;
17604;SDS011;8921;50.964;6.800;2023-10-31T11:27:47;4.00;;;1.43;;
17604;SDS011;8921;50.964;6.800;2023-10-31T11:30:22;5.17;;;1.47;;
17604;SDS011;8921;50.964;6.800;2023-10-31T11:32:52;4.73;;;1.53;;
17604;SDS011;8921;50.964;6.800;2023-10-31T11:35:23;4.47;;;1.50;;
17604;SDS011;8921;50.964;6.800;2023-10-31T11:38:03;4.57;;;1.53;;
17604;SDS011;8921;50.964;6.800;2023-10-31T11:40:35;5.20;;;1.47;;
17604;SDS011;8921;50.964;6.800;2023-10-31T11:43:04;6.07;;;1.67;;
17604;SDS011;8921;50.964;6.800;2023-10-31T11:45:33;4.00;;;1.60;;
17604;SDS011;8921;50.964;6.800;2023-10-31T11:48:11;7.87;;;3.83;;
17604;SDS011;8921;50.964;6.800;2023-10-31T11:50:40;3.90;;;1.37;;
17604;SDS011;8921;50.964;6.800;2023-10-31T11:53:09;5.47;;;1.67;;
17604;SDS011;8921;50.964;6.800;2023-10-31T11:55:40;4.80;;;1.60;;
17604;SDS011;8921;50.964;6.800;2023-10-31T11:58:20;5.40;;;1.73;;
17604;SDS011;8921;50.964;6.800;2023-10-31T12:00:49;6.07;;;1.53;;
17604;SDS011;8921;50.964;6.800;2023-10-31T12:03:20;7.93;;;1.37;;
17604;SDS011;8921;50.964;6.800;2023-10-31T12:05:51;5.27;;;1.40;;
17604;SDS011;8921;50.964;6.800;2023-10-31T12:08:28;5.70;;;2.00;;
17604;SDS011;8921;50.964;6.800;2023-10-31T12:13:39;7.93;;;2.03;;
17604;SDS011;8921;50.964;6.800;2023-10-31T12:16:07;4.00;;;1.30;;
17604;SDS011;8921;50.964;6.800;2023-10-31T12:18:35;8.80;;;1.63;;
17604;SDS011;8921;50.964;6.800;2023-10-31T12:21:03;5.47;;;1.77;;
17604;SDS011;8921;50.964;6.800;2023-10-31T12:23:32;5.87;;;1.63;;
17604;SDS011;8921;50.964;6.800;2023-10-31T12:26:00;6.77;;;1.70;;
17604;SDS011;8921;50.964;6.800;2023-10-31T12:28:28;4.37;;;1.27;;
17604;SDS011;8921;50.964;6.800;2023-10-31T12:30:56;8.90;;;1.70;;
17604;SDS011;8921;50.964;6.800;2023-10-31T12:33:25;5.60;;;1.47;;
17604;SDS011;8921;50.964;6.800;2023-10-31T12:35:56;4.80;;;1.40;;
17604;SDS011;8921;50.964;6.800;2023-10-31T12:38:27;6.20;;;1.47;;
17604;SDS011;8921;50.964;6.800;2023-10-31T12:40:55;5.87;;;1.27;;
17604;SDS011;8921;50.964;6.800;2023-10-31T12:43:23;6.07;;;1.60;;
17604;SDS011;8921;50.964;6.800;2023-10-31T12:45:52;6.30;;;2.47;;
17604;SDS011;8921;50.964;6.800;2023-10-31T12:48:23;3.93;;;1.23;;
17604;SDS011;8921;50.964;6.800;2023-10-31T12:50:48;4.57;;;1.30;;
17604;SDS011;8921;50.964;6.800;2023-10-31T12:53:23;7.70;;;1.50;;
17604;SDS011;8921;50.964;6.800;2023-10-31T12:55:45;5.93;;;1.70;;
17604;SDS011;8921;50.964;6.800;2023-10-31T12:58:19;5.67;;;1.60;;
17604;SDS011;8921;50.964;6.800;2023-10-31T13:00:42;4.60;;;1.40;;
17604;SDS011;8921;50.964;6.800;2023-10-31T13:03:10;8.80;;;1.60;;
17604;SDS011;8921;50.964;6.800;2023-10-31T13:05:38;4.60;;;1.40;;
17604;SDS011;8921;50.964;6.800;2023-10-31T13:08:15;8.43;;;2.00;;
17604;SDS011;8921;50.964;6.800;2023-10-31T13:10:44;4.90;;;1.50;;
17604;SDS011;8921;50.964;6.800;2023-10-31T13:13:12;4.57;;;1.50;;
17604;SDS011;8921;50.964;6.800;2023-10-31T13:15:40;4.77;;;1.53;;
17604;SDS011;8921;50.964;6.800;2023-10-31T13:18:09;4.93;;;1.30;;
17604;SDS011;8921;50.964;6.800;2023-10-31T13:20:37;7.07;;;1.63;;
17604;SDS011;8921;50.964;6.800;2023-10-31T13:23:05;6.23;;;1.33;;
17604;SDS011;8921;50.964;6.800;2023-10-31T13:25:34;11.63;;;1.43;;
17604;SDS011;8921;50.964;6.800;2023-10-31T13:28:02;7.00;;;1.73;;
17604;SDS011;8921;50.964;6.800;2023-10-31T13:30:30;5.70;;;1.40;;
17604;SDS011;8921;50.964;6.800;2023-10-31T13:32:58;5.03;;;1.30;;
17604;SDS011;8921;50.964;6.800;2023-10-31T13:35:27;8.23;;;1.47;;
17604;SDS011;8921;50.964;6.800;2023-10-31T13:37:55;6.47;;;1.40;;
17604;SDS011;8921;50.964;6.800;2023-10-31T13:40:23;9.87;;;1.90;;
17604;SDS011;8921;50.964;6.800;2023-10-31T13:42:52;7.33;;;1.53;;
17604;SDS011;8921;50.964;6.800;2023-10-31T13:45:20;7.77;;;1.80;;
17604;SDS011;8921;50.964;6.800;2023-10-31T13:47:48;4.60;;;1.40;;
17604;SDS011;8921;50.964;6.800;2023-10-31T13:50:16;7.37;;;1.50;;
17604;SDS011;8921;50.964;6.800;2023-10-31T13:52:45;8.10;;;2.00;;
17604;SDS011;8921;50.964;6.800;2023-10-31T13:55:13;6.60;;;2.43;;
17604;SDS011;8921;50.964;6.800;2023-10-31T13:57:41;5.80;;;2.00;;
17604;SDS011;8921;50.964;6.800;2023-10-31T14:00:10;6.00;;;1.77;;
17604;SDS011;8921;50.964;6.800;2023-10-31T14:02:38;8.50;;;1.93;;
17604;SDS011;8921;50.964;6.800;2023-10-31T14:05:07;4.73;;;1.37;;
17604;SDS011;8921;50.964;6.800;2023-10-31T14:07:35;5.50;;;1.70;;
17604;SDS011;8921;50.964;6.800;2023-10-31T14:10:03;4.60;;;1.30;;
17604;SDS011;8921;50.964;6.800;2023-10-31T14:12:32;9.13;;;1.60;;
17604;SDS011;8921;50.964;6.800;2023-10-31T14:15:00;6.10;;;1.77;;
17604;SDS011;8921;50.964;6.800;2023-10-31T14:17:28;7.73;;;1.90;;
17604;SDS011;8921;50.964;6.800;2023-10-31T14:19:57;11.57;;;1.87;;
17604;SDS011;8921;50.964;6.800;2023-10-31T14:22:25;5.40;;;1.40;;
17604;SDS011;8921;50.964;6.800;2023-10-31T14:24:53;9.03;;;2.03;;
17604;SDS011;8921;50.964;6.800;2023-10-31T14:27:21;8.20;;;2.43;;
17604;SDS011;8921;50.964;6.800;2023-10-31T14:29:50;7.13;;;2.17;;
17604;SDS011;8921;50.964;6.800;2023-10-31T14:32:18;6.07;;;1.50;;
17604;SDS011;8921;50.964;6.800;2023-10-31T14:34:46;5.77;;;2.17;;
17604;SDS011;8921;50.964;6.800;2023-10-31T14:37:15;6.47;;;1.73;;
17604;SDS011;8921;50.964;6.800;2023-10-31T14:39:43;4.60;;;1.43;;
17604;SDS011;8921;50.964;6.800;2023-10-31T14:42:11;6.03;;;1.57;;
17604;SDS011;8921;50.964;6.800;2023-10-31T14:44:39;7.07;;;2.50;;
17604;SDS011;8921;50.964;6.800;2023-10-31T14:47:08;4.77;;;1.50;;
17604;SDS011;8921;50.964;6.800;2023-10-31T14:49:36;5.27;;;1.63;;
17604;SDS011;8921;50.964;6.800;2023-10-31T14:52:05;9.87;;;2.20;;
17604;SDS011;8921;50.964;6.800;2023-10-31T14:54:33;6.13;;;1.30;;
17604;SDS011;8921;50.964;6.800;2023-10-31T14:57:01;8.20;;;2.17;;
17604;SDS011;8921;50.964;6.800;2023-10-31T14:59:29;10.40;;;1.83;;
17604;SDS011;8921;50.964;6.800;2023-10-31T15:01:58;6.10;;;1.97;;
17604;SDS011;8921;50.964;6.800;2023-10-31T15:04:26;6.40;;;1.40;;
17604;SDS011;8921;50.964;6.800;2023-10-31T15:06:54;7.00;;;1.50;;
17604;SDS011;8921;50.964;6.800;2023-10-31T15:09:22;5.60;;;1.67;;
17604;SDS011;8921;50.964;6.800;2023-10-31T15:11:51;6.53;;;1.70;;
17604;SDS011;8921;50.964;6.800;2023-10-31T15:14:19;7.80;;;1.43;;
17604;SDS011;8921;50.964;6.800;2023-10-31T15:16:47;8.40;;;2.20;;